Hamilton, ND (58238)

9:33 AM CDT on July 28, 2015 (GMT -0500)
Cavalier | | Change Station
CLOSE
Current Station
Airport
Location: Cavalier,
Elevation: 892 ft
Nearby Weather Stations
Active Advisory: Wind Advisory

Elev 892 ft 48.78 °N, 97.63 °W | Updated 18 minutes ago

Clear
Clear
75 °F
Feels Like 75 °F
N
14
Wind Variable Wind from South
Gusts 21 mph

Today
High -- | Low -- °F
--% Chance of Precip.
Yesterday
High -- | Low -- °F
Precip. -- in
5:58 AM 9:14 PM
Waxing Gibbous, 90% visible
Pressure 29.54 in
Visibility 10.0 miles
Clouds Mostly Cloudy 7000 ft
Dew Point 70 °F
Humidity 83%
Rainfall 0.00 in
Snow Depth Not available.
UV 2 out of 12
Pollen 2.80 out of 12
Air Quality Not available.
Flu Activity Not available.
METAR K2C8 281415Z AUTO 18012G18KT 10SM BKN070 24/21 A2954 RMK AO2

More Conditions Fewer Conditions

Pressure 29.54 in
Visibility 10.0 miles
Clouds Mostly Cloudy 7000 ft
Dew Point 70 °F
Humidity 83%
Rainfall 0.00 in
Snow Depth Not available.
UV 2 out of 12
Pollen 2.80 out of 12
Air Quality Not available.
Flu Activity Not available.
METAR K2C8 281415Z AUTO 18012G18KT 10SM BKN070 24/21 A2954 RMK AO2

More Conditions Fewer Conditions

10-Day Weather Forecast

×

Almanac

Astronomy

Jul. 28, 2015 Rise Set
Actual Time
Civil Twilight
Nautical Twilight
Astronomical Twilight
Moon
Length of Visible Light
Length of Day
Tomorrow will be .
, % of the Moon is Illuminated

Today's Extremes

State Highs State Lows

Community

WunderPhotos

Upload Photos

1,841,837 photos uploaded!

WunderBlogs® & News

Nearby

Air Quality

  Air Quality AQ Index Pollutant
Not available.

Snow Depth

Station Depth Elevation

Earthquake Activity

City Distance Mag. Time & Date
Minimum magnitude displayed is 2.5.

Coastal Water Temperatures

Place Temperature

Stations

Nearby Weather Stations

Station Location Temp. Windchill Dew Point Humidity Wind Precip. Elev Updated Type
                   
Wind Advisory
Statement as of 4:02 AM CDT on July 28, 2015

... Wind Advisory in effect from 3 PM this afternoon to 11 PM CDT
this evening...

The National Weather Service in Grand Forks has issued a Wind
Advisory... which is in effect from 3 PM this afternoon to 11 PM
CDT this evening.

* Winds... becoming southwest 30 to 35 mph with gusts up to 50 mph.
The strongest winds should be in the Devils Lake basin... with
gusts to 55 mph possible.

* Timing... this afternoon through this evening.

* Impacts... waves of 4 to 6 feet may be generated in the Devils
Lake basin and over other large lakes... resulting in roadbed
erosion in susceptible areas.

Precautionary/preparedness actions...

A Wind Advisory means that winds of 35 mph are expected. Winds
this strong can make driving difficult... especially for high
profile vehicles. Use extra caution.



Dk